createdAt,value
2023-04-01T00:02:16.978Z,66.81
2023-04-01T00:05:18.540Z,67.03
2023-04-01T00:08:20.010Z,65.78
2023-04-01T00:11:21.938Z,65.37
2023-04-01T00:14:23.328Z,64.86
2023-04-01T00:17:24.827Z,64.76
2023-04-01T00:20:26.669Z,64.52
2023-04-01T00:23:28.125Z,64.17
2023-04-01T00:26:29.558Z,63.99
2023-04-01T00:29:31.581Z,64.05
2023-04-01T00:32:33.163Z,64.20
2023-04-01T00:35:35.621Z,62.96
2023-04-01T00:38:38.342Z,64.14
2023-04-01T00:41:39.947Z,64.16
2023-04-01T00:44:42.243Z,63.78
2023-04-01T00:47:43.872Z,63.54
2023-04-01T00:51:04.781Z,63.61
2023-04-01T00:54:07.737Z,62.92
2023-04-01T00:57:13.644Z,63.96
2023-04-01T01:00:16.778Z,64.19
2023-04-01T01:03:18.703Z,64.77
2023-04-01T01:06:32.174Z,63.12
2023-04-01T01:09:39.692Z,63.83
2023-04-01T01:13:10.210Z,63.86
2023-04-01T01:16:25.120Z,64.69
2023-04-01T01:19:51.606Z,63.86
2023-04-01T01:23:19.878Z,64.38
2023-04-01T01:26:52.966Z,65.13
2023-04-01T01:30:14.574Z,66.07
2023-04-01T01:33:33.259Z,65.41
2023-04-01T01:36:38.478Z,65.49
2023-04-01T01:39:47.058Z,66.42
2023-04-01T01:42:53.018Z,66.01
2023-04-01T01:46:01.044Z,65.32
2023-04-01T01:49:06.044Z,66.86
2023-04-01T01:52:07.756Z,65.65
2023-04-01T01:55:29.947Z,65.82
2023-04-01T01:58:41.408Z,66.39
2023-04-01T02:01:47.641Z,66.51
2023-04-01T02:04:51.345Z,65.79
2023-04-01T02:08:17.264Z,65.54
2023-04-01T02:11:24.945Z,65.71
2023-04-01T02:14:42.953Z,66.32
2023-04-01T02:17:46.889Z,64.85
2023-04-01T02:20:50.146Z,64.08
2023-04-01T02:23:54.945Z,63.66
2023-04-01T02:26:56.394Z,62.49
2023-04-01T02:29:58.824Z,62.76
2023-04-01T02:33:01.275Z,62.93
2023-04-01T02:36:02.857Z,63.24
2023-04-01T02:39:05.544Z,63.25
2023-04-01T02:42:07.102Z,62.93
2023-04-01T02:45:09.516Z,63.06
2023-04-01T02:48:11.183Z,64.98
2023-04-01T02:51:12.626Z,66.13
2023-04-01T02:54:14.416Z,64.05
2023-04-01T02:57:18.337Z,64.69
2023-04-01T03:00:19.958Z,64.13
2023-04-01T03:03:21.624Z,63.87
2023-04-01T03:06:23.138Z,63.57
2023-04-01T03:09:24.634Z,64.37
2023-04-01T03:12:26.138Z,63.48
2023-04-01T03:15:27.738Z,63.30
2023-04-01T03:18:29.595Z,63.47
2023-04-01T03:21:32.415Z,64.04
2023-04-01T03:24:33.828Z,63.64
2023-04-01T03:27:36.609Z,62.69
2023-04-01T03:30:38.107Z,63.29
2023-04-01T03:33:39.606Z,63.20
2023-04-01T03:36:41.069Z,62.81
2023-04-01T03:39:44.497Z,63.18
2023-04-01T03:42:46.086Z,63.26
2023-04-01T03:45:49.768Z,63.27
2023-04-01T03:48:51.172Z,63.63
2023-04-01T03:51:52.794Z,63.07
2023-04-01T03:54:54.467Z,63.28
2023-04-01T03:57:56.237Z,62.08
2023-04-01T04:00:58.030Z,61.61
2023-04-01T04:04:00.211Z,61.57
2023-04-01T04:07:01.737Z,61.37
2023-04-01T04:10:09.430Z,61.60
2023-04-01T04:13:11.094Z,60.70
2023-04-01T04:16:19.725Z,60.27
2023-04-01T04:19:27.739Z,60.58
2023-04-01T04:22:29.325Z,60.45
2023-04-01T04:25:31.168Z,60.35
2023-04-01T04:28:33.424Z,60.19
2023-04-01T04:31:35.157Z,60.27
2023-04-01T04:34:36.741Z,60.45
2023-04-01T04:37:38.269Z,60.33
2023-04-01T04:40:42.229Z,60.17
2023-04-01T04:43:51.052Z,60.53
2023-04-01T04:46:52.590Z,60.90
2023-04-01T04:49:54.086Z,60.71
2023-04-01T04:52:55.767Z,60.42
2023-04-01T04:55:57.681Z,61.27
2023-04-01T04:59:09.542Z,61.10
2023-04-01T05:02:23.687Z,60.68
2023-04-01T05:05:25.407Z,61.16
2023-04-01T05:08:26.999Z,61.17
2023-04-01T05:11:28.562Z,62.01
2023-04-01T05:14:30.865Z,62.39
2023-04-01T05:17:40.340Z,61.91
2023-04-01T05:20:47.699Z,62.99
2023-04-01T05:23:49.586Z,63.18
2023-04-01T05:26:51.334Z,61.87
2023-04-01T05:29:52.927Z,63.38
2023-04-01T05:33:15.709Z,63.64
2023-04-01T05:36:17.576Z,63.01
2023-04-01T05:39:19.206Z,63.77
2023-04-01T05:42:21.482Z,63.13
2023-04-01T05:45:24.719Z,63.72
2023-04-01T05:48:44.559Z,63.12
2023-04-01T05:51:46.251Z,64.08
2023-04-01T05:54:47.793Z,63.45
2023-04-01T05:57:50.466Z,63.17
2023-04-01T06:01:05.851Z,63.06
2023-04-01T06:04:16.380Z,63.21
2023-04-01T06:07:18.891Z,63.15
2023-04-01T06:10:22.166Z,61.88
2023-04-01T06:13:55.626Z,62.17
2023-04-01T06:17:24.050Z,61.56
2023-04-01T06:20:48.706Z,61.10
2023-04-01T06:24:13.917Z,61.85
2023-04-01T06:27:53.948Z,61.11
2023-04-01T06:31:11.929Z,62.00
2023-04-01T06:34:53.469Z,61.56
2023-04-01T06:38:36.429Z,62.70
2023-04-01T06:41:41.222Z,62.29
2023-04-01T06:45:07.715Z,63.01
2023-04-01T06:48:44.270Z,63.41
2023-04-01T06:52:23.739Z,65.43
2023-04-01T06:56:11.606Z,66.24
2023-04-01T06:59:35.936Z,65.97
2023-04-01T07:02:44.155Z,65.71
2023-04-01T07:05:45.883Z,66.34
2023-04-01T07:08:49.770Z,65.69
2023-04-01T07:11:52.866Z,66.03
2023-04-01T07:15:39.427Z,66.25
2023-04-01T07:18:49.305Z,65.44
2023-04-01T07:21:56.162Z,66.37
2023-04-01T07:25:16.621Z,66.67
2023-04-01T07:28:23.113Z,66.51
2023-04-01T07:31:55.581Z,66.75
2023-04-01T07:35:22.259Z,65.56
2023-04-01T07:38:41.620Z,66.61
2023-04-01T07:41:47.854Z,67.56
2023-04-01T07:45:16.812Z,66.76
2023-04-01T07:48:34.044Z,66.72
2023-04-01T07:51:46.471Z,67.43
2023-04-01T07:55:11.034Z,68.58
2023-04-01T07:58:27.939Z,69.05
2023-04-01T08:01:34.736Z,69.08
2023-04-01T08:04:36.404Z,69.60
2023-04-01T08:07:51.331Z,68.90
2023-04-01T08:11:26.289Z,69.09
2023-04-01T08:14:52.165Z,70.16
2023-04-01T08:18:29.240Z,70.75
2023-04-01T08:21:40.086Z,71.52
2023-04-01T08:24:47.576Z,71.63
2023-04-01T08:28:18.768Z,72.11
2023-04-01T08:31:32.372Z,72.33
2023-04-01T08:34:43.250Z,72.72
2023-04-01T08:37:58.524Z,72.99
2023-04-01T08:41:02.421Z,72.58
2023-04-01T08:45:01.507Z,73.03
2023-04-01T08:48:09.601Z,72.91
2023-04-01T08:51:31.221Z,72.21
2023-04-01T08:54:58.565Z,72.78
2023-04-01T08:58:55.923Z,73.27
2023-04-01T09:02:31.734Z,73.31
2023-04-01T09:06:21.603Z,73.67
2023-04-01T09:09:30.307Z,74.27
2023-04-01T09:13:00.030Z,74.67
2023-04-01T09:16:36.604Z,74.12
2023-04-01T09:19:53.125Z,74.23
2023-04-01T09:23:22.312Z,73.77
2023-04-01T09:27:15.639Z,74.09
2023-04-01T09:30:31.750Z,74.31
2023-04-01T09:33:45.276Z,74.18
2023-04-01T09:37:18.739Z,75.73
2023-04-01T09:40:38.367Z,74.78
2023-04-01T09:44:10.526Z,75.08
2023-04-01T09:47:47.269Z,74.61
2023-04-01T09:51:08.011Z,75.32
2023-04-01T09:54:15.739Z,74.73
2023-04-01T09:57:52.789Z,75.55
2023-04-01T10:01:56.752Z,75.20
2023-04-01T10:05:27.595Z,74.21
2023-04-01T10:09:07.082Z,74.88
2023-04-01T10:12:25.974Z,74.27
2023-04-01T10:16:05.262Z,74.59
2023-04-01T10:19:40.817Z,74.85
2023-04-01T10:22:54.655Z,74.53
2023-04-01T10:26:10.733Z,74.49
2023-04-01T10:29:33.757Z,74.44
2023-04-01T10:33:08.674Z,74.41
2023-04-01T10:36:38.057Z,73.99
2023-04-01T10:40:08.134Z,74.10
2023-04-01T10:44:15.721Z,74.06
2023-04-01T10:47:38.345Z,74.86
2023-04-01T10:51:17.970Z,75.28
2023-04-01T10:54:43.951Z,75.46
2023-04-01T10:58:30.644Z,74.76
2023-04-01T11:02:35.594Z,75.34
2023-04-01T11:06:14.690Z,76.33
2023-04-01T11:09:28.292Z,75.61
2023-04-01T11:13:10.962Z,75.19
2023-04-01T11:16:26.001Z,75.66
2023-04-01T11:20:01.068Z,76.37
2023-04-01T11:23:13.674Z,75.28
2023-04-01T11:26:43.545Z,75.04
2023-04-01T11:30:25.933Z,75.74
2023-04-01T11:34:11.120Z,76.94
2023-04-01T11:37:38.082Z,76.77
2023-04-01T11:41:26.522Z,77.22
2023-04-01T11:45:16.601Z,76.28
2023-04-01T11:48:40.875Z,76.07
2023-04-01T11:51:48.380Z,76.38
2023-04-01T11:55:21.044Z,76.56
2023-04-01T11:58:37.363Z,76.53
2023-04-01T12:02:10.070Z,76.18
2023-04-01T12:05:31.155Z,76.95
2023-04-01T12:08:47.639Z,75.67
2023-04-01T12:12:04.207Z,74.88
2023-04-01T12:15:30.982Z,75.15
2023-04-01T12:18:51.068Z,75.07
2023-04-01T12:22:13.207Z,75.34
2023-04-01T12:25:25.971Z,74.65
2023-04-01T12:29:06.983Z,75.29
2023-04-01T12:32:29.094Z,75.14
2023-04-01T12:36:09.658Z,74.97
2023-04-01T12:39:40.376Z,75.30
2023-04-01T12:42:58.071Z,74.97
2023-04-01T12:46:15.078Z,74.49
2023-04-01T12:49:35.071Z,74.07
2023-04-01T12:53:04.137Z,74.25
2023-04-01T12:56:14.174Z,73.77
2023-04-01T12:59:24.565Z,73.11
2023-04-01T13:02:41.203Z,73.48
2023-04-01T13:05:57.676Z,72.83
2023-04-01T13:09:20.927Z,72.07
2023-04-01T13:12:22.351Z,72.74
2023-04-01T13:15:41.336Z,72.62
2023-04-01T13:18:56.759Z,73.04
2023-04-01T13:22:02.263Z,73.55
2023-04-01T13:25:22.472Z,72.72
2023-04-01T13:28:33.304Z,73.29
2023-04-01T13:31:53.406Z,73.16
2023-04-01T13:35:06.027Z,73.26
2023-04-01T13:38:42.000Z,73.94
2023-04-01T13:41:47.271Z,73.22
2023-04-01T13:45:03.650Z,72.93
2023-04-01T13:48:17.325Z,71.75
2023-04-01T13:51:53.167Z,71.80
2023-04-01T13:55:07.711Z,71.31
2023-04-01T13:58:30.002Z,70.19
2023-04-01T14:01:48.903Z,70.17
2023-04-01T14:05:42.150Z,70.29
2023-04-01T14:09:16.067Z,70.35
2023-04-01T14:12:31.377Z,70.52
2023-04-01T14:15:51.570Z,70.66
2023-04-01T14:19:26.231Z,69.68
2023-04-01T14:22:47.577Z,69.44
2023-04-01T14:26:11.037Z,70.01
2023-04-01T14:29:18.516Z,69.77
2023-04-01T14:32:47.878Z,69.74
2023-04-01T14:36:20.105Z,70.02
2023-04-01T14:39:44.033Z,69.50
2023-04-01T14:43:08.186Z,68.65
2023-04-01T14:46:44.345Z,67.41
2023-04-01T14:50:17.715Z,68.65
2023-04-01T14:53:30.170Z,68.44
2023-04-01T14:56:45.812Z,68.33
2023-04-01T14:59:54.475Z,68.52
2023-04-01T15:03:04.759Z,68.56
2023-04-01T15:06:40.454Z,68.60
2023-04-01T15:09:50.826Z,68.75
2023-04-01T15:13:25.608Z,68.16
2023-04-01T15:16:36.238Z,67.90
2023-04-01T15:20:03.129Z,67.57
2023-04-01T15:23:28.795Z,67.03
2023-04-01T15:26:55.210Z,67.46
2023-04-01T15:30:18.992Z,67.19
2023-04-01T15:33:44.839Z,66.42
2023-04-01T15:37:01.301Z,67.41
2023-04-01T15:40:25.931Z,66.10
2023-04-01T15:43:45.334Z,66.36
2023-04-01T15:46:51.078Z,65.97
2023-04-01T15:50:14.438Z,65.80
2023-04-01T15:53:35.007Z,66.01
2023-04-01T15:56:57.779Z,66.17
2023-04-01T16:00:22.903Z,65.92
2023-04-01T16:04:12.240Z,65.81
2023-04-01T16:07:39.592Z,64.82
2023-04-01T16:11:00.130Z,65.48
2023-04-01T16:14:15.341Z,64.90
2023-04-01T16:17:34.884Z,64.99
2023-04-01T16:21:02.528Z,62.41
2023-04-01T16:24:11.178Z,61.19
2023-04-01T16:27:19.891Z,60.54
2023-04-01T16:30:46.972Z,61.39
2023-04-01T16:33:59.682Z,61.12
2023-04-01T16:37:04.857Z,61.96
2023-04-01T16:40:21.205Z,63.10
2023-04-01T16:43:27.859Z,64.04
2023-04-01T16:46:41.242Z,65.00
2023-04-01T16:49:53.304Z,66.02
2023-04-01T16:53:03.654Z,65.92
2023-04-01T16:56:21.766Z,65.03
2023-04-01T16:59:48.498Z,65.68
2023-04-01T17:03:05.393Z,65.22
2023-04-01T17:06:21.476Z,65.14
2023-04-01T17:09:35.470Z,64.36
2023-04-01T17:13:01.511Z,64.81
2023-04-01T17:16:31.109Z,63.94
2023-04-01T17:19:50.909Z,64.25
2023-04-01T17:23:05.134Z,64.01
2023-04-01T17:26:28.685Z,63.71
2023-04-01T17:29:36.340Z,64.32
2023-04-01T17:33:00.812Z,64.17
2023-04-01T17:36:17.705Z,63.47
2023-04-01T17:39:40.390Z,64.11
2023-04-01T17:42:51.712Z,63.26
2023-04-01T17:46:21.508Z,63.65
2023-04-01T17:49:40.932Z,63.56
2023-04-01T17:53:14.936Z,65.02
2023-04-01T17:56:30.772Z,67.51
2023-04-01T17:59:40.417Z,68.40
2023-04-01T18:03:06.983Z,67.69
2023-04-01T18:06:19.687Z,66.99
2023-04-01T18:09:38.545Z,66.90
2023-04-01T18:13:09.436Z,66.35
2023-04-01T18:16:50.639Z,67.13
2023-04-01T18:19:55.251Z,67.27
2023-04-01T18:23:21.635Z,69.43
2023-04-01T18:26:29.531Z,69.51
2023-04-01T18:29:42.429Z,69.43
2023-04-01T18:33:01.947Z,70.74
2023-04-01T18:36:40.078Z,70.73
2023-04-01T18:39:47.335Z,70.98
2023-04-01T18:43:09.797Z,71.77
2023-04-01T18:46:30.436Z,71.78
2023-04-01T18:49:56.461Z,72.45
2023-04-01T18:53:10.976Z,72.98
2023-04-01T18:56:16.313Z,72.86
2023-04-01T18:59:40.457Z,72.63
2023-04-01T19:02:48.918Z,72.62
2023-04-01T19:05:54.600Z,72.56
2023-04-01T19:08:56.573Z,72.91
2023-04-01T19:12:11.103Z,73.45
2023-04-01T19:15:12.648Z,73.52
2023-04-01T19:18:32.136Z,73.52
2023-04-01T19:21:44.496Z,74.11
2023-04-01T19:25:10.401Z,72.78
2023-04-01T19:28:21.593Z,73.45
2023-04-01T19:31:38.325Z,72.14
2023-04-01T19:35:11.695Z,71.38
2023-04-01T19:38:25.309Z,71.75
2023-04-01T19:41:38.270Z,70.29
2023-04-01T19:44:49.717Z,71.29
2023-04-01T19:48:09.433Z,72.19
2023-04-01T19:51:22.980Z,72.50
2023-04-01T19:54:44.269Z,72.73
2023-04-01T19:58:13.153Z,73.01
2023-04-01T20:01:44.092Z,73.15
2023-04-01T20:04:51.794Z,73.23
2023-04-01T20:08:00.437Z,73.44
2023-04-01T20:11:31.292Z,74.24
2023-04-01T20:14:51.167Z,73.65
2023-04-01T20:17:57.491Z,76.77
2023-04-01T20:21:06.307Z,75.52
2023-04-01T20:24:24.650Z,75.28
2023-04-01T20:27:37.296Z,74.37
2023-04-01T20:31:11.660Z,74.93
2023-04-01T20:34:23.938Z,75.42
2023-04-01T20:37:33.168Z,74.99
2023-04-01T20:40:42.371Z,75.14
2023-04-01T20:44:15.546Z,74.86
2023-04-01T20:47:19.851Z,74.45
2023-04-01T20:50:49.145Z,74.83
2023-04-01T20:54:11.973Z,74.71
2023-04-01T20:57:44.496Z,74.56
2023-04-01T21:00:54.138Z,74.14
2023-04-01T21:04:11.737Z,74.58
2023-04-01T21:07:28.329Z,74.29
2023-04-01T21:10:49.931Z,75.70
2023-04-01T21:14:08.299Z,74.96
2023-04-01T21:17:15.711Z,74.92
2023-04-01T21:20:17.281Z,73.94
2023-04-01T21:23:36.381Z,74.26
2023-04-01T21:27:23.278Z,74.22
2023-04-01T21:30:46.183Z,73.63
2023-04-01T21:34:21.721Z,74.50
2023-04-01T21:37:50.290Z,73.92
2023-04-01T21:41:14.961Z,74.49
2023-04-01T21:44:31.804Z,72.81
2023-04-01T21:47:45.243Z,72.18
2023-04-01T21:51:06.774Z,72.37
2023-04-01T21:54:19.056Z,72.36
2023-04-01T21:57:58.482Z,72.27
2023-04-01T22:01:12.267Z,72.48
2023-04-01T22:04:41.610Z,71.40
2023-04-01T22:08:01.776Z,71.78
2023-04-01T22:11:13.335Z,71.54
2023-04-01T22:14:32.467Z,72.20
2023-04-01T22:17:44.232Z,71.79
2023-04-01T22:21:06.071Z,71.40
2023-04-01T22:24:30.570Z,71.01
2023-04-01T22:27:44.840Z,71.35
2023-04-01T22:30:51.818Z,70.76
2023-04-01T22:34:15.318Z,70.80
2023-04-01T22:37:38.309Z,70.64
2023-04-01T22:40:59.499Z,70.64
2023-04-01T22:44:01.385Z,70.92
2023-04-01T22:47:19.872Z,71.59
2023-04-01T22:50:32.826Z,70.76
2023-04-01T22:54:08.262Z,70.35
2023-04-01T22:57:12.967Z,70.74
2023-04-01T23:00:25.142Z,70.95
2023-04-01T23:03:31.496Z,71.93
2023-04-01T23:06:43.833Z,70.70
2023-04-01T23:09:45.442Z,70.73
2023-04-01T23:12:48.382Z,70.39
2023-04-01T23:15:54.272Z,70.74
2023-04-01T23:19:02.667Z,69.66
2023-04-01T23:22:41.905Z,70.00
2023-04-01T23:26:02.252Z,70.56
2023-04-01T23:29:05.178Z,69.86
2023-04-01T23:32:16.879Z,70.25
2023-04-01T23:35:18.406Z,69.85
2023-04-01T23:38:27.233Z,69.45
2023-04-01T23:41:33.535Z,69.34
2023-04-01T23:44:36.963Z,69.45
2023-04-01T23:47:42.011Z,69.35
2023-04-01T23:50:45.264Z,69.39
2023-04-01T23:53:48.435Z,69.85
2023-04-01T23:56:53.333Z,70.21
